createdAt,value
2017-12-15T00:02:26.004Z,1.87
2017-12-15T00:04:54.340Z,1.37
2017-12-15T00:07:22.685Z,4.67
2017-12-15T00:09:51.785Z,2.33
2017-12-15T00:12:20.165Z,2.07
2017-12-15T00:14:49.245Z,3.73
2017-12-15T00:17:17.570Z,1.50
2017-12-15T00:19:45.883Z,2.07
2017-12-15T00:22:14.190Z,5.03
2017-12-15T00:24:43.371Z,2.53
2017-12-15T00:27:11.771Z,5.83
2017-12-15T00:29:40.148Z,2.90
2017-12-15T00:32:09.230Z,5.97
2017-12-15T00:34:37.543Z,5.20
2017-12-15T00:37:06.648Z,4.40
2017-12-15T00:39:34.962Z,3.70
2017-12-15T00:42:03.289Z,2.83
2017-12-15T00:44:32.354Z,7.17
2017-12-15T00:47:00.703Z,11.63
2017-12-15T00:49:29.026Z,2.53
2017-12-15T00:51:57.384Z,2.33
2017-12-15T00:54:26.578Z,3.50
2017-12-15T00:56:54.969Z,7.30
2017-12-15T00:59:23.265Z,5.97
2017-12-15T01:01:51.592Z,6.27
2017-12-15T01:04:19.919Z,3.20
2017-12-15T01:06:49.057Z,2.37
2017-12-15T01:09:17.388Z,2.27
2017-12-15T01:11:45.711Z,2.50
2017-12-15T01:14:14.058Z,5.43
2017-12-15T01:16:43.143Z,7.00
2017-12-15T01:19:11.490Z,6.20
2017-12-15T01:21:39.834Z,3.10
2017-12-15T01:24:08.910Z,6.77
2017-12-15T01:26:38.017Z,6.57
2017-12-15T01:29:07.097Z,4.50
2017-12-15T01:31:35.452Z,7.40
2017-12-15T01:34:03.810Z,5.00
2017-12-15T01:36:32.133Z,3.23
2017-12-15T01:39:00.458Z,3.13
2017-12-15T01:41:28.831Z,2.33
2017-12-15T01:43:57.186Z,2.40
2017-12-15T01:46:26.291Z,2.50
2017-12-15T01:48:54.613Z,3.87
2017-12-15T01:51:22.990Z,3.53
2017-12-15T01:53:51.313Z,2.43
2017-12-15T01:56:19.634Z,2.60
2017-12-15T01:58:47.998Z,2.80
2017-12-15T02:01:16.556Z,3.73
2017-12-15T02:03:45.700Z,1.90
2017-12-15T02:06:14.068Z,2.83
2017-12-15T02:08:42.432Z,2.67
2017-12-15T02:11:10.790Z,1.63
2017-12-15T02:13:39.914Z,1.80
2017-12-15T02:16:08.250Z,2.43
2017-12-15T02:18:36.564Z,2.47
2017-12-15T02:21:04.919Z,1.23
2017-12-15T02:23:34.022Z,2.97
2017-12-15T02:26:03.114Z,2.40
2017-12-15T02:28:32.181Z,1.37
2017-12-15T02:31:00.521Z,2.37
2017-12-15T02:33:28.837Z,1.30
2017-12-15T02:35:57.156Z,1.67
2017-12-15T02:38:26.220Z,1.20
2017-12-15T02:40:54.551Z,1.00
2017-12-15T02:43:22.856Z,0.90
2017-12-15T02:45:51.205Z,1.53
2017-12-15T02:48:19.503Z,2.00
2017-12-15T02:50:48.668Z,0.70
2017-12-15T02:53:16.993Z,0.90
2017-12-15T02:55:45.304Z,0.70
2017-12-15T02:58:14.396Z,2.50
2017-12-15T03:00:43.495Z,0.73
2017-12-15T03:03:12.587Z,0.57
2017-12-15T03:05:41.673Z,0.70
2017-12-15T03:08:10.044Z,0.60
2017-12-15T03:10:38.365Z,0.60
2017-12-15T03:13:06.731Z,0.60
2017-12-15T03:15:35.069Z,0.70
2017-12-15T03:18:03.385Z,0.60
2017-12-15T03:20:32.505Z,0.80
2017-12-15T03:23:00.841Z,0.70
2017-12-15T03:25:29.966Z,0.50
2017-12-15T03:27:59.059Z,0.83
2017-12-15T03:30:28.185Z,1.10
2017-12-15T03:32:56.498Z,2.20
2017-12-15T03:35:24.853Z,0.80
2017-12-15T03:37:53.200Z,0.90
2017-12-15T03:40:22.283Z,0.70
2017-12-15T03:42:51.428Z,0.70
2017-12-15T03:45:19.776Z,0.70
2017-12-15T03:47:48.894Z,0.60
2017-12-15T03:50:17.268Z,0.80
2017-12-15T03:52:45.608Z,1.37
2017-12-15T03:55:13.931Z,0.90
2017-12-15T03:57:42.306Z,2.50
2017-12-15T04:00:10.631Z,1.77
2017-12-15T04:02:38.994Z,0.87
2017-12-15T04:05:08.174Z,0.80
2017-12-15T04:07:37.418Z,0.90
2017-12-15T04:10:06.554Z,0.90
2017-12-15T04:12:34.873Z,0.80
2017-12-15T04:15:03.244Z,0.90
2017-12-15T04:17:31.562Z,1.70
2017-12-15T04:20:00.699Z,0.70
2017-12-15T04:22:29.027Z,1.07
2017-12-15T04:24:57.379Z,1.00
2017-12-15T04:27:25.689Z,2.07
2017-12-15T04:29:54.037Z,2.50
2017-12-15T04:32:22.345Z,0.77
2017-12-15T04:34:50.706Z,0.93
2017-12-15T04:37:19.057Z,2.80
2017-12-15T04:39:47.376Z,0.80
2017-12-15T04:42:15.720Z,2.50
2017-12-15T04:44:44.061Z,1.57
2017-12-15T04:47:12.395Z,1.07
2017-12-15T04:49:40.717Z,1.53
2017-12-15T04:52:09.822Z,2.13
2017-12-15T04:54:38.159Z,1.20
2017-12-15T04:57:06.477Z,0.80
2017-12-15T04:59:34.804Z,0.90
2017-12-15T05:02:03.103Z,1.43
2017-12-15T05:04:31.421Z,1.43
2017-12-15T05:06:59.743Z,3.90
2017-12-15T05:09:28.068Z,2.83
2017-12-15T05:11:56.370Z,0.80
2017-12-15T05:14:25.586Z,0.77
2017-12-15T05:16:53.926Z,1.00
2017-12-15T05:19:22.293Z,1.47
2017-12-15T05:21:51.402Z,1.00
2017-12-15T05:24:19.729Z,0.80
2017-12-15T05:26:48.072Z,0.80
2017-12-15T05:29:16.408Z,1.00
2017-12-15T05:31:44.765Z,2.90
2017-12-15T05:34:13.094Z,2.73
2017-12-15T05:36:41.460Z,3.70
2017-12-15T05:39:10.561Z,1.70
2017-12-15T05:41:39.676Z,1.77
2017-12-15T05:44:07.994Z,1.90
2017-12-15T05:46:36.334Z,1.43
2017-12-15T05:49:04.634Z,2.10
2017-12-15T05:51:32.946Z,2.73
2017-12-15T05:54:01.272Z,1.67
2017-12-15T05:56:29.583Z,1.30
2017-12-15T05:58:57.910Z,5.80
2017-12-15T06:01:27.032Z,1.10
2017-12-15T06:03:55.378Z,1.33
2017-12-15T06:06:24.469Z,1.00
2017-12-15T06:08:52.809Z,1.77
2017-12-15T06:11:21.111Z,1.10
2017-12-15T06:13:49.418Z,0.90
2017-12-15T06:16:18.504Z,2.30
2017-12-15T06:18:46.844Z,1.57
2017-12-15T06:21:15.160Z,9.73
2017-12-15T06:23:44.221Z,2.50
2017-12-15T06:26:12.553Z,2.20
2017-12-15T06:28:41.630Z,8.43
2017-12-15T06:31:10.716Z,0.70
2017-12-15T06:33:39.027Z,1.03
2017-12-15T06:36:07.361Z,0.90
2017-12-15T06:38:35.673Z,3.63
2017-12-15T06:41:04.753Z,0.90
2017-12-15T06:43:33.096Z,1.03
2017-12-15T06:46:01.398Z,2.53
2017-12-15T06:48:29.725Z,0.83
2017-12-15T06:50:58.038Z,3.70
2017-12-15T06:53:26.365Z,3.23
2017-12-15T06:55:55.438Z,3.07
2017-12-15T06:58:23.755Z,2.50
2017-12-15T07:00:52.838Z,10.90
2017-12-15T07:03:21.186Z,19.47
2017-12-15T07:05:50.282Z,17.80
2017-12-15T07:08:18.601Z,13.13
2017-12-15T07:10:46.933Z,7.00
2017-12-15T07:13:15.240Z,4.20
2017-12-15T07:15:44.330Z,1.60
2017-12-15T07:18:13.414Z,8.33
2017-12-15T07:20:41.732Z,3.37
2017-12-15T07:23:10.033Z,3.33
2017-12-15T07:25:38.371Z,2.20
2017-12-15T07:28:07.439Z,4.73
2017-12-15T07:30:35.791Z,7.27
2017-12-15T07:33:04.115Z,2.60
2017-12-15T07:35:32.418Z,21.10
2017-12-15T07:38:00.766Z,19.60
2017-12-15T07:40:29.830Z,9.80
2017-12-15T07:42:58.169Z,2.33
2017-12-15T07:45:26.485Z,5.93
2017-12-15T07:47:54.821Z,2.70
2017-12-15T07:50:23.134Z,0.80
2017-12-15T07:52:51.480Z,2.80
2017-12-15T07:55:19.807Z,2.50
2017-12-15T07:57:48.148Z,1.60
2017-12-15T08:00:16.464Z,3.10
2017-12-15T08:02:44.778Z,1.80
2017-12-15T08:05:13.868Z,1.43
2017-12-15T08:07:42.943Z,2.13
2017-12-15T08:10:11.281Z,1.67
2017-12-15T08:12:39.595Z,2.57
2017-12-15T08:15:07.933Z,2.67
2017-12-15T08:17:36.225Z,2.93
2017-12-15T08:20:04.571Z,5.37
2017-12-15T08:22:33.639Z,2.23
2017-12-15T08:25:01.949Z,3.03
2017-12-15T08:27:30.289Z,1.80
2017-12-15T08:29:58.594Z,1.60
2017-12-15T08:32:27.677Z,9.27
2017-12-15T08:34:56.775Z,3.60
2017-12-15T08:37:25.861Z,1.13
2017-12-15T08:39:54.942Z,3.70
2017-12-15T08:42:24.198Z,3.37
2017-12-15T08:44:52.513Z,1.33
2017-12-15T08:47:20.860Z,3.30
2017-12-15T08:49:49.178Z,8.23
2017-12-15T08:52:17.495Z,1.10
2017-12-15T08:54:45.834Z,1.40
2017-12-15T08:57:14.126Z,3.80
2017-12-15T08:59:42.442Z,4.30
2017-12-15T09:02:10.773Z,4.20
2017-12-15T09:04:39.102Z,2.87
2017-12-15T09:07:07.420Z,4.50
2017-12-15T09:09:35.748Z,3.27
2017-12-15T09:12:04.832Z,1.90
2017-12-15T09:14:33.917Z,2.80
2017-12-15T09:17:03.002Z,3.30
2017-12-15T09:19:31.334Z,11.87
2017-12-15T09:21:59.639Z,8.77
2017-12-15T09:24:27.997Z,1.20
2017-12-15T09:26:56.298Z,1.40
2017-12-15T09:29:24.623Z,1.93
2017-12-15T09:31:53.689Z,3.90
2017-12-15T09:34:21.993Z,3.43
2017-12-15T09:36:51.079Z,1.03
2017-12-15T09:39:20.158Z,1.67
2017-12-15T09:41:48.472Z,2.63
2017-12-15T09:44:16.795Z,5.13
2017-12-15T09:46:45.104Z,1.00
2017-12-15T09:49:13.414Z,3.77
2017-12-15T09:51:41.753Z,4.30
2017-12-15T09:54:10.066Z,0.80
2017-12-15T09:56:39.144Z,6.93
2017-12-15T09:59:08.291Z,1.53
2017-12-15T10:01:37.325Z,2.20
2017-12-15T10:04:06.447Z,1.47
2017-12-15T10:06:35.507Z,4.70
2017-12-15T10:09:03.843Z,3.60
2017-12-15T10:11:32.151Z,3.37
2017-12-15T10:14:00.454Z,1.67
2017-12-15T10:16:28.786Z,1.10
2017-12-15T10:18:57.085Z,4.83
2017-12-15T10:21:25.410Z,3.60
2017-12-15T10:23:54.486Z,6.93
2017-12-15T10:26:22.831Z,10.10
2017-12-15T10:28:51.145Z,10.50
2017-12-15T10:31:19.465Z,3.00
2017-12-15T10:33:47.807Z,2.03
2017-12-15T10:36:16.140Z,1.33
2017-12-15T10:38:44.479Z,1.23
2017-12-15T10:41:12.818Z,1.67
2017-12-15T10:43:41.211Z,0.90
2017-12-15T10:46:09.538Z,2.63
2017-12-15T10:48:37.889Z,5.43
2017-12-15T10:51:06.206Z,1.30
2017-12-15T10:53:34.564Z,1.40
2017-12-15T10:56:02.889Z,1.33
2017-12-15T10:58:31.213Z,2.37
2017-12-15T11:01:00.327Z,4.93
2017-12-15T11:03:28.647Z,1.30
2017-12-15T11:05:57.003Z,1.60
2017-12-15T11:08:25.326Z,2.60
2017-12-15T11:10:53.682Z,7.03
2017-12-15T11:13:21.995Z,4.50
2017-12-15T11:15:51.129Z,2.33
2017-12-15T11:18:19.449Z,2.03
2017-12-15T11:20:47.780Z,1.37
2017-12-15T11:23:16.118Z,7.03
2017-12-15T11:25:45.199Z,3.03
2017-12-15T11:28:13.571Z,2.13
2017-12-15T11:30:41.902Z,1.07
2017-12-15T11:33:10.245Z,1.83
2017-12-15T11:35:38.550Z,1.20
2017-12-15T11:38:06.914Z,2.00
2017-12-15T11:40:35.226Z,4.80
2017-12-15T11:43:03.531Z,1.83
2017-12-15T11:45:31.902Z,2.93
2017-12-15T11:48:00.232Z,2.23
2017-12-15T11:50:29.331Z,4.57
2017-12-15T11:52:58.412Z,3.60
2017-12-15T11:55:26.750Z,3.53
2017-12-15T11:57:55.055Z,2.03
2017-12-15T12:00:23.376Z,2.53
2017-12-15T12:02:51.675Z,3.50
2017-12-15T12:05:19.993Z,3.47
2017-12-15T12:07:48.304Z,3.00
2017-12-15T12:10:17.385Z,2.53
2017-12-15T12:12:46.471Z,2.13
2017-12-15T12:15:14.810Z,2.13
2017-12-15T12:17:43.137Z,3.63
2017-12-15T12:20:12.216Z,2.70
2017-12-15T12:22:40.552Z,3.63
2017-12-15T12:25:08.861Z,2.13
2017-12-15T12:27:37.185Z,1.00
2017-12-15T12:30:05.489Z,1.90
2017-12-15T12:32:33.827Z,1.97
2017-12-15T12:35:02.913Z,1.53
2017-12-15T12:37:31.241Z,1.57
2017-12-15T12:39:59.553Z,2.60
2017-12-15T12:42:27.859Z,2.90
2017-12-15T12:44:56.946Z,2.23
2017-12-15T12:47:25.324Z,1.40
2017-12-15T12:49:53.639Z,1.20
2017-12-15T12:52:21.947Z,2.60
2017-12-15T12:54:50.269Z,2.80
2017-12-15T12:57:19.332Z,2.10
2017-12-15T12:59:47.692Z,2.50
2017-12-15T13:02:15.985Z,5.03
2017-12-15T13:04:44.319Z,1.50
2017-12-15T13:07:12.629Z,1.90
2017-12-15T13:09:41.012Z,5.27
2017-12-15T13:12:09.349Z,5.03
2017-12-15T13:14:38.439Z,9.80
2017-12-15T13:17:07.547Z,2.50
2017-12-15T13:19:35.854Z,6.43
2017-12-15T13:22:04.206Z,2.13
2017-12-15T13:24:32.558Z,4.43
2017-12-15T13:27:01.746Z,1.20
2017-12-15T13:29:30.068Z,3.17
2017-12-15T13:31:58.407Z,2.23
2017-12-15T13:34:26.759Z,4.23
2017-12-15T13:36:55.132Z,2.73
2017-12-15T13:39:23.438Z,1.77
2017-12-15T13:41:51.766Z,3.27
2017-12-15T13:44:20.075Z,2.50
2017-12-15T13:46:48.438Z,3.93
2017-12-15T13:49:16.766Z,5.23
2017-12-15T13:51:45.873Z,5.13
2017-12-15T13:54:14.948Z,1.63
2017-12-15T13:56:43.270Z,6.80
2017-12-15T13:59:11.581Z,1.13
2017-12-15T14:01:39.917Z,1.20
2017-12-15T14:04:08.978Z,3.43
2017-12-15T14:06:37.307Z,4.80
2017-12-15T14:09:05.621Z,1.40
2017-12-15T14:11:33.966Z,2.10
2017-12-15T14:14:02.272Z,2.00
2017-12-15T14:16:30.590Z,5.23
2017-12-15T14:18:58.992Z,4.30
2017-12-15T14:21:27.339Z,3.00
2017-12-15T14:23:55.667Z,2.40
2017-12-15T14:26:24.006Z,8.43
2017-12-15T14:28:56.109Z,2.53
2017-12-15T14:31:24.486Z,2.03
2017-12-15T14:33:52.805Z,2.10
2017-12-15T14:36:21.153Z,0.70
2017-12-15T14:38:49.495Z,0.90
2017-12-15T14:41:18.599Z,2.30
2017-12-15T14:43:46.950Z,2.63
2017-12-15T14:46:15.291Z,0.97
2017-12-15T14:48:51.577Z,6.43
2017-12-15T14:51:12.040Z,5.47
2017-12-15T14:53:41.161Z,1.63
2017-12-15T14:56:09.490Z,1.33
2017-12-15T14:58:37.846Z,2.73
2017-12-15T15:01:06.190Z,1.37
2017-12-15T15:03:34.529Z,2.80
2017-12-15T15:06:02.862Z,1.63
2017-12-15T15:08:31.216Z,0.73
2017-12-15T15:10:59.552Z,0.70
2017-12-15T15:13:28.644Z,1.63
2017-12-15T15:15:57.749Z,1.40
2017-12-15T15:18:26.854Z,1.20
2017-12-15T15:20:55.210Z,1.90
2017-12-15T15:23:24.304Z,1.00
2017-12-15T15:25:52.658Z,1.37
2017-12-15T15:28:20.975Z,11.47
2017-12-15T15:30:50.108Z,0.90
2017-12-15T15:33:18.450Z,1.00
2017-12-15T15:35:46.785Z,1.67
2017-12-15T15:38:15.094Z,4.47
2017-12-15T15:40:43.425Z,4.73
2017-12-15T15:43:11.762Z,4.30
2017-12-15T15:45:40.890Z,2.10
2017-12-15T15:48:09.218Z,1.77
2017-12-15T15:50:37.577Z,1.20
2017-12-15T15:53:05.903Z,1.50
2017-12-15T15:55:35.001Z,1.80
2017-12-15T15:58:03.314Z,1.93
2017-12-15T16:00:31.705Z,1.10
2017-12-15T16:03:00.046Z,1.60
2017-12-15T16:05:28.649Z,2.87
2017-12-15T16:07:56.977Z,1.83
2017-12-15T16:10:26.230Z,1.47
2017-12-15T16:12:55.313Z,2.20
2017-12-15T16:15:23.667Z,3.27
2017-12-15T16:17:52.805Z,4.43
2017-12-15T16:20:21.140Z,5.13
2017-12-15T16:22:50.253Z,3.57
2017-12-15T16:25:18.574Z,4.67
2017-12-15T16:27:46.908Z,2.00
2017-12-15T16:30:15.230Z,4.90
2017-12-15T16:32:43.618Z,2.80
2017-12-15T16:35:11.963Z,4.20
2017-12-15T16:37:40.359Z,2.50
2017-12-15T16:40:08.708Z,3.40
2017-12-15T16:42:37.058Z,7.17
2017-12-15T16:45:05.379Z,5.73
2017-12-15T16:47:33.708Z,6.77
2017-12-15T16:50:02.105Z,9.23
2017-12-15T16:52:31.311Z,7.90
2017-12-15T16:55:00.386Z,6.70
2017-12-15T16:57:28.719Z,8.67
2017-12-15T16:59:57.053Z,4.60
2017-12-15T17:02:25.406Z,9.30
2017-12-15T17:04:53.808Z,5.43
2017-12-15T17:07:22.940Z,3.83
2017-12-15T17:09:51.259Z,2.53
2017-12-15T17:12:19.610Z,3.10
2017-12-15T17:14:47.918Z,6.87
2017-12-15T17:17:16.264Z,3.13
2017-12-15T17:19:44.575Z,11.40
2017-12-15T17:22:13.815Z,3.23
2017-12-15T17:24:42.901Z,3.63
2017-12-15T17:27:12.018Z,3.13
2017-12-15T17:29:40.353Z,2.67
2017-12-15T17:32:12.222Z,3.87
2017-12-15T17:34:40.606Z,10.77
2017-12-15T17:37:09.046Z,8.70
2017-12-15T17:39:37.366Z,5.40
2017-12-15T17:42:05.706Z,3.90
2017-12-15T17:44:34.052Z,2.93
2017-12-15T17:47:02.460Z,6.13
2017-12-15T17:49:30.803Z,5.87
2017-12-15T17:51:59.914Z,12.87
2017-12-15T17:54:28.355Z,12.53
2017-12-15T17:56:56.693Z,18.97
2017-12-15T17:59:25.013Z,13.93
2017-12-15T18:01:53.366Z,14.57
2017-12-15T18:04:21.694Z,30.33
2017-12-15T18:06:50.827Z,40.77
2017-12-15T18:09:19.149Z,27.27
2017-12-15T18:11:47.497Z,35.10
2017-12-15T18:14:15.837Z,34.57
2017-12-15T18:16:44.999Z,25.17
2017-12-15T18:19:13.327Z,7.70
2017-12-15T18:21:41.674Z,11.97
2017-12-15T18:24:09.979Z,5.03
2017-12-15T18:26:38.319Z,8.33
2017-12-15T18:29:06.678Z,6.20
2017-12-15T18:31:35.055Z,7.77
2017-12-15T18:34:03.383Z,5.60
2017-12-15T18:36:32.520Z,7.40
2017-12-15T18:39:00.890Z,6.00
2017-12-15T18:41:29.209Z,8.47
2017-12-15T18:43:57.541Z,4.30
2017-12-15T18:46:25.874Z,4.70
2017-12-15T18:48:54.233Z,8.30
2017-12-15T18:51:22.564Z,2.40
2017-12-15T18:53:50.929Z,6.00
2017-12-15T18:56:20.041Z,5.07
2017-12-15T18:58:48.424Z,6.00
2017-12-15T19:01:16.728Z,9.20
2017-12-15T19:03:45.062Z,18.63
2017-12-15T19:06:13.441Z,19.30
2017-12-15T19:08:42.526Z,15.33
2017-12-15T19:11:11.686Z,9.30
2017-12-15T19:13:40.020Z,4.53
2017-12-15T19:16:11.990Z,7.63
2017-12-15T19:18:40.350Z,22.27
2017-12-15T19:21:09.484Z,30.97
2017-12-15T19:23:37.836Z,40.33
2017-12-15T19:26:06.198Z,30.93
2017-12-15T19:28:34.530Z,23.20
2017-12-15T19:31:02.850Z,22.90
2017-12-15T19:33:31.206Z,15.53
2017-12-15T19:35:59.578Z,16.90
2017-12-15T19:38:27.947Z,14.43
2017-12-15T19:40:56.298Z,13.50
2017-12-15T19:43:24.667Z,9.23
2017-12-15T19:45:53.775Z,11.73
2017-12-15T19:48:22.192Z,15.47
2017-12-15T19:50:50.522Z,16.97
2017-12-15T19:53:18.909Z,25.83
2017-12-15T19:55:47.239Z,23.17
2017-12-15T19:58:15.608Z,14.80
2017-12-15T20:00:44.082Z,19.50
2017-12-15T20:03:12.484Z,19.30
2017-12-15T20:05:40.893Z,16.63
2017-12-15T20:08:09.232Z,16.60
2017-12-15T20:10:37.575Z,17.60
2017-12-15T20:13:05.912Z,21.83
2017-12-15T20:15:34.293Z,17.23
2017-12-15T20:18:02.640Z,16.63
2017-12-15T20:20:30.954Z,21.93
2017-12-15T20:22:59.299Z,11.47
2017-12-15T20:25:27.625Z,16.27
2017-12-15T20:27:56.759Z,14.23
2017-12-15T20:30:25.105Z,17.73
2017-12-15T20:32:53.520Z,17.43
2017-12-15T20:35:22.181Z,25.93
2017-12-15T20:37:54.903Z,19.37
2017-12-15T20:40:23.274Z,14.23
2017-12-15T20:42:51.747Z,22.37
2017-12-15T20:45:20.153Z,18.27
2017-12-15T20:47:48.502Z,16.77
2017-12-15T20:50:16.876Z,14.10
2017-12-15T20:52:45.282Z,13.67
2017-12-15T20:55:14.445Z,16.07
2017-12-15T20:57:42.855Z,16.50
2017-12-15T21:00:11.185Z,20.63
2017-12-15T21:02:39.597Z,10.53
2017-12-15T21:05:08.008Z,10.03
2017-12-15T21:07:36.394Z,29.87
2017-12-15T21:10:04.801Z,24.77
2017-12-15T21:12:33.125Z,18.67
2017-12-15T21:15:04.981Z,14.20
2017-12-15T21:17:33.352Z,27.00
2017-12-15T21:20:01.693Z,18.10
2017-12-15T21:22:30.998Z,17.37
2017-12-15T21:24:59.346Z,23.13
2017-12-15T21:27:27.656Z,25.30
2017-12-15T21:29:56.041Z,22.40
2017-12-15T21:32:25.185Z,15.47
2017-12-15T21:34:53.587Z,19.23
2017-12-15T21:37:21.941Z,16.47
2017-12-15T21:39:50.314Z,17.50
2017-12-15T21:42:19.431Z,21.77
2017-12-15T21:44:47.822Z,13.77
2017-12-15T21:47:16.215Z,16.07
2017-12-15T21:49:44.618Z,18.30
2017-12-15T21:52:13.783Z,16.20
2017-12-15T21:54:42.202Z,12.87
2017-12-15T21:57:11.364Z,21.00
2017-12-15T21:59:39.733Z,21.67
2017-12-15T22:02:08.074Z,20.83
2017-12-15T22:04:36.446Z,23.07
2017-12-15T22:07:04.840Z,20.33
2017-12-15T22:09:33.261Z,19.00
2017-12-15T22:12:01.605Z,21.63
2017-12-15T22:14:29.977Z,18.50
2017-12-15T22:16:58.358Z,14.10
2017-12-15T22:19:26.764Z,23.20
2017-12-15T22:21:55.114Z,17.47
2017-12-15T22:24:23.504Z,16.80
2017-12-15T22:26:51.883Z,21.70
2017-12-15T22:29:20.211Z,19.03
2017-12-15T22:31:49.355Z,21.07
2017-12-15T22:34:18.513Z,21.90
2017-12-15T22:36:46.877Z,16.00
2017-12-15T22:39:15.301Z,23.53
2017-12-15T22:41:43.685Z,23.43
2017-12-15T22:44:12.043Z,26.63
2017-12-15T22:46:41.146Z,13.47
2017-12-15T22:49:09.580Z,12.77
2017-12-15T22:51:37.980Z,11.63
2017-12-15T22:54:06.299Z,11.13
2017-12-15T22:56:34.660Z,16.70
2017-12-15T22:59:03.785Z,18.03
2017-12-15T23:01:34.033Z,17.83
2017-12-15T23:04:02.360Z,15.30
2017-12-15T23:06:31.462Z,15.40
2017-12-15T23:09:00.589Z,17.93
2017-12-15T23:11:28.927Z,21.00
2017-12-15T23:13:58.022Z,13.97
2017-12-15T23:16:26.398Z,23.97
2017-12-15T23:18:55.536Z,28.00
2017-12-15T23:21:23.884Z,15.93
2017-12-15T23:23:53.012Z,22.63
2017-12-15T23:26:21.376Z,20.33
2017-12-15T23:28:49.749Z,21.83
2017-12-15T23:31:18.149Z,33.17
2017-12-15T23:33:46.478Z,21.23
2017-12-15T23:36:14.822Z,21.97
2017-12-15T23:38:43.148Z,17.07
2017-12-15T23:41:11.527Z,14.63
2017-12-15T23:43:40.705Z,20.07
2017-12-15T23:46:25.411Z,24.10
2017-12-15T23:48:53.914Z,22.23
2017-12-15T23:51:29.742Z,21.80
2017-12-15T23:53:58.123Z,23.23
2017-12-15T23:59:34.216Z,16.57
